createdAt,value
2023-05-23T00:01:51.115Z,65.29
2023-05-23T00:04:22.270Z,65.32
2023-05-23T00:06:50.984Z,65.55
2023-05-23T00:09:20.089Z,65.90
2023-05-23T00:11:48.596Z,66.41
2023-05-23T00:14:17.279Z,66.53
2023-05-23T00:16:46.678Z,66.98
2023-05-23T00:19:16.399Z,67.33
2023-05-23T00:21:51.428Z,67.42
2023-05-23T00:24:20.801Z,67.94
2023-05-23T00:26:49.386Z,68.29
2023-05-23T00:29:17.943Z,68.69
2023-05-23T00:31:47.214Z,69.03
2023-05-23T00:34:19.875Z,68.88
2023-05-23T00:36:50.718Z,69.00
2023-05-23T00:39:21.974Z,69.62
2023-05-23T00:41:52.586Z,70.21
2023-05-23T00:44:22.342Z,70.38
2023-05-23T00:46:55.586Z,70.44
2023-05-23T00:49:25.045Z,70.55
2023-05-23T00:51:53.476Z,71.06
2023-05-23T00:54:27.566Z,71.52
2023-05-23T00:56:56.389Z,71.78
2023-05-23T00:59:26.292Z,72.21
2023-05-23T01:01:56.614Z,72.22
2023-05-23T01:04:28.696Z,72.13
2023-05-23T01:06:58.026Z,72.20
2023-05-23T01:09:31.214Z,71.65
2023-05-23T01:12:14.517Z,71.65
2023-05-23T01:14:55.361Z,71.48
2023-05-23T01:17:54.997Z,72.23
2023-05-23T01:20:29.126Z,72.60
2023-05-23T01:23:07.143Z,72.88
2023-05-23T01:25:36.522Z,73.00
2023-05-23T01:28:08.233Z,73.33
2023-05-23T01:30:41.386Z,73.20
2023-05-23T01:33:12.037Z,73.40
2023-05-23T01:35:40.912Z,73.47
2023-05-23T01:38:09.634Z,73.97
2023-05-23T01:40:38.263Z,74.81
2023-05-23T01:43:07.504Z,75.04
2023-05-23T01:45:36.534Z,74.85
2023-05-23T01:48:06.623Z,74.94
2023-05-23T01:50:35.427Z,74.69
2023-05-23T01:53:04.749Z,75.09
2023-05-23T01:55:33.400Z,75.07
2023-05-23T01:58:03.316Z,75.30
2023-05-23T02:00:31.813Z,75.88
2023-05-23T02:03:00.396Z,75.90
2023-05-23T02:05:28.981Z,75.94
2023-05-23T02:07:57.496Z,75.77
2023-05-23T02:10:26.605Z,75.99
2023-05-23T02:12:55.382Z,76.12
2023-05-23T02:15:23.927Z,76.12
2023-05-23T02:17:53.400Z,76.04
2023-05-23T02:20:22.030Z,75.86
2023-05-23T02:22:50.712Z,75.75
2023-05-23T02:25:19.065Z,76.17
2023-05-23T02:27:47.987Z,76.42
2023-05-23T02:30:17.451Z,76.48
2023-05-23T02:32:46.578Z,76.81
2023-05-23T02:35:15.936Z,76.85
2023-05-23T02:37:44.580Z,76.91
2023-05-23T02:40:13.621Z,76.76
2023-05-23T02:42:42.035Z,76.99
2023-05-23T02:45:10.849Z,77.12
2023-05-23T02:47:40.356Z,77.10
2023-05-23T02:50:09.359Z,77.02
2023-05-23T02:52:37.785Z,77.12
2023-05-23T02:55:07.021Z,76.97
2023-05-23T02:57:35.456Z,76.88
2023-05-23T03:00:04.046Z,76.55
2023-05-23T03:02:33.480Z,76.36
2023-05-23T03:05:02.766Z,76.36
2023-05-23T03:07:34.085Z,76.53
2023-05-23T03:10:02.820Z,76.48
2023-05-23T03:12:32.273Z,76.54
2023-05-23T03:15:01.118Z,76.37
2023-05-23T03:17:29.675Z,76.55
2023-05-23T03:19:59.283Z,76.46
2023-05-23T03:22:28.584Z,76.31
2023-05-23T03:24:57.506Z,75.81
2023-05-23T03:27:27.022Z,75.76
2023-05-23T03:29:56.548Z,75.72
2023-05-23T03:32:25.578Z,75.57
2023-05-23T03:34:54.300Z,75.26
2023-05-23T03:37:22.882Z,75.19
2023-05-23T03:39:51.888Z,75.13
2023-05-23T03:42:20.497Z,75.32
2023-05-23T03:44:50.313Z,75.31
2023-05-23T03:47:18.988Z,75.12
2023-05-23T03:49:48.366Z,75.21
2023-05-23T03:52:17.400Z,75.24
2023-05-23T03:54:47.101Z,75.47
2023-05-23T03:57:16.565Z,75.62
2023-05-23T03:59:45.294Z,75.39
2023-05-23T04:02:14.664Z,75.19
2023-05-23T04:04:44.416Z,75.35
2023-05-23T04:07:13.334Z,75.04
2023-05-23T04:09:41.958Z,74.72
2023-05-23T04:12:12.248Z,74.39
2023-05-23T04:14:44.524Z,74.63
2023-05-23T04:17:15.435Z,74.50
2023-05-23T04:19:46.392Z,73.97
2023-05-23T04:22:17.306Z,73.52
2023-05-23T04:24:47.516Z,73.43
2023-05-23T04:27:18.407Z,73.28
2023-05-23T04:29:49.365Z,72.79
2023-05-23T04:32:23.391Z,72.67
2023-05-23T04:34:54.314Z,72.10
2023-05-23T04:37:26.565Z,72.07
2023-05-23T04:39:57.306Z,71.35
2023-05-23T04:42:30.354Z,71.24
2023-05-23T04:45:02.516Z,70.99
2023-05-23T04:47:37.230Z,70.31
2023-05-23T04:50:08.368Z,70.38
2023-05-23T04:52:39.333Z,70.10
2023-05-23T04:55:11.424Z,69.67
2023-05-23T04:57:42.326Z,69.64
2023-05-23T05:00:13.498Z,69.32
2023-05-23T05:02:45.397Z,68.49
2023-05-23T05:05:16.434Z,68.07
2023-05-23T05:07:49.605Z,68.01
2023-05-23T05:10:19.627Z,67.59
2023-05-23T05:20:11.380Z,66.56
2023-05-23T05:22:40.740Z,66.40
2023-05-23T05:25:10.616Z,65.65
2023-05-23T05:27:39.961Z,65.20
2023-05-23T05:30:10.517Z,64.10
2023-05-23T05:32:38.947Z,64.27
2023-05-23T05:35:08.379Z,64.44
2023-05-23T05:37:36.642Z,64.61
2023-05-23T05:40:08.945Z,63.90
2023-05-23T05:46:37.474Z,63.53
2023-05-23T06:07:26.417Z,61.16
2023-05-23T06:09:26.589Z,61.00
2023-05-23T06:42:21.492Z,57.47
2023-05-23T06:46:04.097Z,56.25
2023-05-23T06:48:32.957Z,54.55
2023-05-23T06:51:01.715Z,53.36
2023-05-23T06:53:30.411Z,53.45
2023-05-23T06:56:16.957Z,53.49
2023-05-23T06:58:47.186Z,52.16
2023-05-23T07:01:16.239Z,51.73
2023-05-23T07:03:46.282Z,50.03
2023-05-23T07:06:15.123Z,49.33
2023-05-23T07:08:44.011Z,48.50
2023-05-23T07:11:12.853Z,48.40
2023-05-23T07:13:41.698Z,49.40
2023-05-23T07:16:10.382Z,49.00
2023-05-23T07:18:38.966Z,48.73
2023-05-23T07:21:07.783Z,48.71
2023-05-23T07:23:36.323Z,49.69
2023-05-23T07:26:05.462Z,48.47
2023-05-23T07:28:34.826Z,48.67
2023-05-23T07:31:03.489Z,48.67
2023-05-23T07:33:34.794Z,48.25
2023-05-23T07:38:58.520Z,48.34
2023-05-23T07:42:40.820Z,47.16
2023-05-23T07:47:28.867Z,45.60
2023-05-23T07:49:43.337Z,44.88
2023-05-23T08:00:45.319Z,45.90
2023-05-23T08:08:27.428Z,44.13
2023-05-23T08:11:45.787Z,43.44
2023-05-23T08:16:20.988Z,41.40
2023-05-23T08:35:53.317Z,38.48
2023-05-23T08:43:12.189Z,37.95
2023-05-23T08:44:57.331Z,38.52
2023-05-23T08:58:46.437Z,37.33
2023-05-23T09:02:36.252Z,35.12
2023-05-23T09:05:28.799Z,34.16
2023-05-23T09:12:18.268Z,35.17
2023-05-23T09:15:50.605Z,34.73
2023-05-23T09:19:14.975Z,34.32
2023-05-23T09:22:19.212Z,33.75
2023-05-23T09:25:04.286Z,32.35
2023-05-23T09:28:42.948Z,32.26
2023-05-23T09:31:56.872Z,32.33
2023-05-23T09:35:24.540Z,32.78
2023-05-23T09:42:39.314Z,31.18
2023-05-23T09:46:03.377Z,32.05
2023-05-23T09:49:27.993Z,32.02
2023-05-23T09:52:01.807Z,30.94
2023-05-23T09:54:30.309Z,31.04
2023-05-23T09:57:02.450Z,30.89
2023-05-23T09:59:35.453Z,31.14
2023-05-23T10:02:08.218Z,31.76
2023-05-23T10:04:38.030Z,31.76
2023-05-23T10:07:18.894Z,31.43
2023-05-23T10:10:03.743Z,31.35
2023-05-23T10:13:03.200Z,31.15
2023-05-23T10:15:38.591Z,30.07
2023-05-23T10:18:17.533Z,30.36
2023-05-23T10:20:52.939Z,30.04
2023-05-23T10:23:21.983Z,31.52
2023-05-23T10:25:51.879Z,32.85
2023-05-23T10:28:24.863Z,33.10
2023-05-23T10:30:53.816Z,32.96
2023-05-23T10:33:23.995Z,32.37
2023-05-23T10:36:05.791Z,32.56
2023-05-23T10:38:47.884Z,32.38
2023-05-23T10:41:26.581Z,31.27
2023-05-23T10:44:07.197Z,31.01
2023-05-23T10:46:55.921Z,31.71
2023-05-23T10:49:44.345Z,31.63
2023-05-23T10:52:17.942Z,32.32
2023-05-23T10:54:55.398Z,32.80
2023-05-23T10:57:30.680Z,32.45
2023-05-23T10:59:59.352Z,31.84
2023-05-23T11:03:25.523Z,30.79
2023-05-23T11:06:03.945Z,30.05
2023-05-23T11:08:48.230Z,29.85
2023-05-23T11:11:18.574Z,29.84
2023-05-23T11:13:53.238Z,30.29
2023-05-23T11:16:33.179Z,29.99
2023-05-23T11:19:23.260Z,30.08
2023-05-23T11:22:02.299Z,29.87
2023-05-23T11:24:54.615Z,30.45
2023-05-23T11:27:38.332Z,31.42
2023-05-23T11:30:15.388Z,30.15
2023-05-23T11:33:01.416Z,30.75
2023-05-23T11:35:31.779Z,30.99
2023-05-23T11:38:03.295Z,30.98
2023-05-23T11:40:34.402Z,31.00
2023-05-23T11:43:06.775Z,30.40
2023-05-23T11:45:38.587Z,31.32
2023-05-23T11:48:15.631Z,30.96
2023-05-23T11:50:54.094Z,28.47
2023-05-23T11:53:26.049Z,29.60
2023-05-23T11:56:00.866Z,27.69
2023-05-23T11:58:31.318Z,28.26
2023-05-23T12:01:07.078Z,28.95
2023-05-23T12:03:46.463Z,28.86
2023-05-23T12:06:24.192Z,28.86
2023-05-23T12:08:53.101Z,28.64
2023-05-23T12:11:24.035Z,29.38
2023-05-23T12:13:53.720Z,28.84
2023-05-23T12:16:22.193Z,28.17
2023-05-23T12:18:53.796Z,27.50
2023-05-23T12:22:18.770Z,27.87
2023-05-23T12:25:21.221Z,28.55
2023-05-23T12:28:30.498Z,28.86
2023-05-23T12:32:29.387Z,30.36
2023-05-23T12:35:58.254Z,29.82
2023-05-23T12:39:48.945Z,29.14
2023-05-23T12:47:27.708Z,29.93
2023-05-23T12:50:18.736Z,29.88
2023-05-23T12:56:24.179Z,29.61
2023-05-23T12:58:54.238Z,29.19
2023-05-23T13:01:23.218Z,29.39
2023-05-23T13:03:51.738Z,29.90
2023-05-23T13:06:20.265Z,30.49
2023-05-23T13:08:51.684Z,30.58
2023-05-23T13:11:20.220Z,30.56
2023-05-23T13:13:50.011Z,30.09
2023-05-23T13:16:18.642Z,30.52
2023-05-23T13:18:47.074Z,30.06
2023-05-23T13:21:16.067Z,30.23
2023-05-23T13:23:44.512Z,30.68
2023-05-23T13:26:14.880Z,29.64
2023-05-23T13:28:43.606Z,29.62
2023-05-23T13:31:12.112Z,28.79
2023-05-23T13:33:40.533Z,28.16
2023-05-23T13:36:44.626Z,27.72
2023-05-23T13:39:13.246Z,28.65
2023-05-23T13:41:41.875Z,28.86
2023-05-23T13:44:10.273Z,27.98
2023-05-23T13:46:38.924Z,27.96
2023-05-23T13:49:07.326Z,27.68
2023-05-23T13:51:37.817Z,27.31
2023-05-23T13:54:06.717Z,27.31
2023-05-23T13:56:35.323Z,27.26
2023-05-23T13:59:03.717Z,27.39
2023-05-23T14:01:32.524Z,27.59
2023-05-23T14:04:01.670Z,27.31
2023-05-23T14:06:30.040Z,28.07
2023-05-23T14:08:58.380Z,27.29
2023-05-23T14:11:26.753Z,27.42
2023-05-23T14:13:56.620Z,27.16
2023-05-23T14:16:25.188Z,26.66
2023-05-23T14:18:53.692Z,26.00
2023-05-23T14:21:22.661Z,26.91
2023-05-23T14:23:51.160Z,26.79
2023-05-23T14:26:19.769Z,26.48
2023-05-23T14:28:48.441Z,26.74
2023-05-23T14:31:16.968Z,26.56
2023-05-23T14:33:45.369Z,26.03
2023-05-23T14:36:13.725Z,25.81
2023-05-23T14:38:45.760Z,26.48
2023-05-23T14:41:14.789Z,26.81
2023-05-23T14:43:43.425Z,27.18
2023-05-23T14:46:12.617Z,26.96
2023-05-23T14:48:42.976Z,27.38
2023-05-23T14:51:14.062Z,26.88
2023-05-23T14:53:49.427Z,27.32
2023-05-23T14:56:18.045Z,27.31
2023-05-23T14:58:46.553Z,27.14
2023-05-23T15:01:15.185Z,27.07
2023-05-23T15:03:43.626Z,27.09
2023-05-23T15:06:12.909Z,26.73
2023-05-23T15:08:41.735Z,27.24
2023-05-23T15:11:10.443Z,27.11
2023-05-23T15:13:38.873Z,27.21
2023-05-23T15:16:07.511Z,26.99
2023-05-23T15:18:41.259Z,27.27
2023-05-23T15:21:12.564Z,27.91
2023-05-23T15:23:41.966Z,27.96
2023-05-23T15:26:10.576Z,28.25
2023-05-23T15:28:39.108Z,28.25
2023-05-23T15:31:07.794Z,28.57
2023-05-23T15:33:36.263Z,28.33
2023-05-23T15:36:05.012Z,28.27
2023-05-23T15:38:33.577Z,28.10
2023-05-23T15:41:02.856Z,27.72
2023-05-23T15:43:32.889Z,27.87
2023-05-23T15:46:02.043Z,27.96
2023-05-23T15:48:30.731Z,28.86
2023-05-23T15:50:59.159Z,28.85
2023-05-23T15:53:28.390Z,27.93
2023-05-23T15:55:57.801Z,28.34
2023-05-23T15:58:26.269Z,29.16
2023-05-23T16:00:54.636Z,29.66
2023-05-23T16:03:23.118Z,29.24
2023-05-23T16:05:51.833Z,29.61
2023-05-23T16:08:22.034Z,29.99
2023-05-23T16:10:53.209Z,29.89
2023-05-23T16:13:21.687Z,29.94
2023-05-23T16:15:50.065Z,30.33
2023-05-23T16:18:18.603Z,30.76
2023-05-23T16:20:47.194Z,30.27
2023-05-23T16:23:15.750Z,30.53
2023-05-23T16:25:45.269Z,31.01
2023-05-23T16:28:13.958Z,31.36
2023-05-23T16:30:42.566Z,31.49
2023-05-23T16:33:11.059Z,31.45
2023-05-23T16:35:39.840Z,31.63
2023-05-23T16:38:08.622Z,31.89
2023-05-23T16:40:38.651Z,32.38
2023-05-23T16:43:07.161Z,32.91
2023-05-23T16:45:35.743Z,32.86
2023-05-23T16:48:04.376Z,32.73
2023-05-23T16:50:32.854Z,33.04
2023-05-23T16:53:01.521Z,32.68
2023-05-23T16:55:29.946Z,33.28
2023-05-23T16:57:58.426Z,33.82
2023-05-23T17:00:38.963Z,34.33
2023-05-23T17:07:28.504Z,34.74
2023-05-23T17:14:24.589Z,35.89
2023-05-23T17:17:10.992Z,36.23
2023-05-23T17:19:58.464Z,36.16
2023-05-23T17:22:54.034Z,36.38
2023-05-23T17:25:26.407Z,36.85
2023-05-23T17:28:23.760Z,37.26
2023-05-23T17:31:30.797Z,37.83
2023-05-23T17:34:49.354Z,37.49
2023-05-23T17:38:29.348Z,37.55
2023-05-23T17:44:27.873Z,37.22
2023-05-23T17:48:04.872Z,37.64
2023-05-23T17:50:38.316Z,37.65
2023-05-23T18:05:36.518Z,38.23
2023-05-23T18:24:46.339Z,39.76
2023-05-23T18:40:10.482Z,40.55
2023-05-23T18:43:54.535Z,40.93
2023-05-23T18:46:27.155Z,41.10
2023-05-23T18:48:57.788Z,41.21
2023-05-23T18:51:26.632Z,41.37
2023-05-23T18:53:55.121Z,41.32
2023-05-23T18:56:27.287Z,41.38
2023-05-23T18:58:56.228Z,41.61
2023-05-23T19:01:24.723Z,41.77
2023-05-23T19:03:53.698Z,41.84
2023-05-23T19:06:22.874Z,42.08
2023-05-23T19:08:51.854Z,41.96
2023-05-23T19:11:20.306Z,42.29
2023-05-23T19:13:52.171Z,42.57
2023-05-23T19:16:21.322Z,42.79
2023-05-23T19:18:49.889Z,42.56
2023-05-23T19:21:18.376Z,42.98
2023-05-23T19:25:06.547Z,43.00
2023-05-23T19:27:18.039Z,43.50
2023-05-23T19:30:00.906Z,43.50
2023-05-23T19:32:53.898Z,43.63
2023-05-23T19:35:56.749Z,43.62
2023-05-23T19:39:32.734Z,43.93
2023-05-23T19:43:26.112Z,44.62
2023-05-23T19:47:21.403Z,44.79
2023-05-23T19:53:57.596Z,44.87
2023-05-23T20:00:13.323Z,45.32
2023-05-23T20:02:57.484Z,45.80
2023-05-23T20:05:45.030Z,46.08
2023-05-23T20:08:19.782Z,46.01
2023-05-23T20:10:59.676Z,46.10
2023-05-23T20:13:28.390Z,46.06
2023-05-23T20:15:57.150Z,46.15
2023-05-23T20:18:25.738Z,46.58
2023-05-23T20:20:55.445Z,46.66
2023-05-23T20:23:24.044Z,46.83
2023-05-23T20:25:53.261Z,46.83
2023-05-23T20:28:22.139Z,46.85
2023-05-23T20:30:50.778Z,47.12
2023-05-23T20:33:20.315Z,47.05
2023-05-23T20:35:50.096Z,47.32
2023-05-23T20:38:20.329Z,47.46
2023-05-23T20:40:52.580Z,47.59
2023-05-23T20:43:22.535Z,47.89
2023-05-23T20:45:51.091Z,47.92
2023-05-23T20:48:19.907Z,48.02
2023-05-23T20:50:48.735Z,47.91
2023-05-23T20:53:17.813Z,47.98
2023-05-23T20:55:46.343Z,48.24
2023-05-23T20:58:14.792Z,48.27
2023-05-23T21:00:43.769Z,48.29
2023-05-23T21:03:12.543Z,48.46
2023-05-23T21:05:41.474Z,48.42
2023-05-23T21:08:10.226Z,48.63
2023-05-23T21:10:38.730Z,48.69
2023-05-23T21:13:07.225Z,48.89
2023-05-23T21:15:35.808Z,48.86
2023-05-23T21:18:04.522Z,48.97
2023-05-23T21:20:32.934Z,49.44
2023-05-23T21:23:01.440Z,49.38
2023-05-23T21:25:29.891Z,49.34
2023-05-23T21:27:58.876Z,49.39
2023-05-23T21:30:27.375Z,49.52
2023-05-23T21:32:56.176Z,49.75
2023-05-23T21:35:24.670Z,49.91
2023-05-23T21:37:53.188Z,49.73
2023-05-23T21:40:21.749Z,49.61
2023-05-23T21:42:50.207Z,49.86
2023-05-23T21:45:18.755Z,50.00
2023-05-23T21:47:47.220Z,50.04
2023-05-23T21:50:15.800Z,50.14
2023-05-23T21:52:44.173Z,50.11
2023-05-23T21:55:12.567Z,50.05
2023-05-23T21:57:41.198Z,50.19
2023-05-23T22:00:12.885Z,50.44
2023-05-23T22:02:41.427Z,50.36
2023-05-23T22:05:10.240Z,50.57
2023-05-23T22:07:38.528Z,50.66
2023-05-23T22:10:07.688Z,50.38
2023-05-23T22:12:36.462Z,50.54
2023-05-23T22:15:05.841Z,50.59
2023-05-23T22:17:34.820Z,50.47
2023-05-23T22:20:07.653Z,50.69
2023-05-23T22:22:36.599Z,50.45
2023-05-23T22:25:06.459Z,50.52
2023-05-23T22:27:35.153Z,50.43
2023-05-23T22:30:03.999Z,50.79
2023-05-23T22:32:32.406Z,51.01
2023-05-23T22:35:01.070Z,50.89
2023-05-23T22:37:29.377Z,51.08
2023-05-23T22:39:57.657Z,51.44
2023-05-23T22:42:26.090Z,51.51
2023-05-23T22:44:54.652Z,51.77
2023-05-23T22:47:23.060Z,52.02
2023-05-23T22:49:56.634Z,52.07
2023-05-23T22:52:25.703Z,52.30
2023-05-23T22:54:54.286Z,52.35
2023-05-23T22:57:22.786Z,52.52
2023-05-23T22:59:51.488Z,52.78
2023-05-23T23:02:19.782Z,52.75
2023-05-23T23:04:48.617Z,52.89
2023-05-23T23:07:17.092Z,53.08
2023-05-23T23:09:45.852Z,53.13
2023-05-23T23:12:14.179Z,53.39
2023-05-23T23:14:42.523Z,53.69
2023-05-23T23:17:10.830Z,53.57
2023-05-23T23:19:39.477Z,53.68
2023-05-23T23:22:07.873Z,53.70
2023-05-23T23:24:36.166Z,53.78
2023-05-23T23:27:04.763Z,53.96
2023-05-23T23:29:33.189Z,54.25
2023-05-23T23:32:01.716Z,54.19
2023-05-23T23:34:30.227Z,54.32
2023-05-23T23:36:58.848Z,54.39
2023-05-23T23:39:27.204Z,54.61
2023-05-23T23:41:55.729Z,54.63
2023-05-23T23:44:24.199Z,54.64
2023-05-23T23:46:52.776Z,54.68
2023-05-23T23:49:21.276Z,54.69
2023-05-23T23:51:49.761Z,54.57
2023-05-23T23:54:19.245Z,54.46
2023-05-23T23:56:47.727Z,54.31
2023-05-23T23:59:16.134Z,54.32
